Flight Track Log - Related Links

Times and Time Zones

All times are in EDT time to prevent confusion due to time zone crossing. See the FSR411 flight status page for this flight to view local times or setup timezone preferences in your user account.

Time Position Orientation Groundspeed Altitude Reporting Facility
EDT Latitude Longitude Course Direction KTS MPH feet Rate Location/Type
Tue 07:06:31 PM 45.7989 -91.3364 156° South 264 304 11,400  Level Minneapolis Center
Tue 07:07:33 PM 45.7128 -91.2850 157° South 308 354 14,800 2,903 Climbing Minneapolis Center
Tue 07:08:35 PM 45.6125 -91.2261 158° South 359 413 17,400 2,419 Climbing Minneapolis Center
Tue 07:09:37 PM 45.5019 -91.1619 158° South 403 464 19,800 2,468 Climbing Minneapolis Center
Tue 07:10:00 PM 45.4572 -91.1135 145° Southeast  Level Estimated
Tue 07:10:39 PM 45.3883 -91.0958 158° South 428 493 22,500  Level Minneapolis Center
Tue 07:11:41 PM 45.2742 -91.0303 158° South 437 503 25,200 2,355 Climbing Minneapolis Center
Tue 07:13:45 PM 45.0233 -90.8847 158° South 442 509 29,800 1,968 Climbing Minneapolis Center
Tue 07:14:47 PM 44.9075 -90.8203 158° South 448 516 31,300 1,403 Climbing Minneapolis Center
Tue 07:15:49 PM 44.7828 -90.7492 158° South 455 524 32,700 677 Climbing Minneapolis Center
Tue 07:16:51 PM 44.6653 -90.6822 158° South 456 525 32,700 48 Level Minneapolis Center
Tue 07:17:53 PM 44.5492 -90.6175 158° South 457 526 32,800 145 Climbing Minneapolis Center
Tue 07:18:55 PM 44.4136 -90.5408 158° South 452 520 33,000 96 Climbing Minneapolis Center
Tue 07:19:58 PM 44.2997 -90.4792 159° South 441 507 33,000  Level Minneapolis Center
Tue 07:21:00 PM 44.1803 -90.4142 159° South 456 525 33,000  Level Minneapolis Center
Tue 07:21:52 PM 44.0842 -90.3608 158° South 455 524 33,000  Level Chicago Center
Tue 07:22:54 PM 43.9675 -90.2953 158° South 454 522 33,000  Level Chicago Center
Tue 07:24:06 PM 43.8114 -90.2094 158° South 449 517 33,000  Level Minneapolis Center
Tue 07:25:08 PM 43.6936 -90.1458 159° South 451 519 33,000  Level Minneapolis Center
Tue 07:26:01 PM 43.5958 -90.0944 159° South 453 521 33,000  Level Chicago Center
Tue 07:27:03 PM 43.4792 -90.0300 158° South 452 520 33,000  Level Chicago Center
Tue 07:28:05 PM 43.3617 -89.9678 159° South 452 520 33,000  Level Chicago Center
Tue 07:29:07 PM 43.2244 -89.8931 158° South 456 525 33,000  Level Chicago Center
Tue 07:30:09 PM 43.1081 -89.8308 159° South 453 521 33,000  Level Chicago Center
Tue 07:31:11 PM 42.9906 -89.7694 159° South 452 520 33,000  Level Chicago Center
Tue 07:32:13 PM 42.8744 -89.7058 158° South 451 519 33,000  Level Chicago Center
Tue 07:33:15 PM 42.7575 -89.6450 159° South 451 519 33,000  Level Chicago Center
Tue 07:34:17 PM 42.6222 -89.5747 159° South 449 517 33,000  Level Chicago Center
Tue 07:35:20 PM 42.5056 -89.5131 159° South 449 517 33,000  Level Chicago Center
Tue 07:36:22 PM 42.3889 -89.4528 159° South 451 519 33,000  Level Chicago Center
Tue 07:37:24 PM 42.2719 -89.3933 159° South 449 517 33,000  Level Chicago Center
Tue 07:38:26 PM 42.1347 -89.3219 159° South 452 520 33,000  Level Chicago Center
Tue 07:39:28 PM 42.0339 -89.2689 159° South 451 519 33,000  Level Chicago Center
Tue 07:40:30 PM 41.8936 -89.1981 159° South 452 520 33,000  Level Chicago Center
Tue 07:41:32 PM 41.7781 -89.1378 159° South 451 519 33,000  Level Chicago Center
Tue 07:42:34 PM 41.6614 -89.0786 159° South 453 521 33,000 -528 Level Chicago Center
Tue 07:43:37 PM 41.5450 -89.0208 160° South 451 519 31,900 -1,355 Descending Chicago Center
Tue 07:44:38 PM 41.4278 -88.9617 159° South 456 525 30,200 -1,839 Descending Chicago Center
Tue 07:45:41 PM 41.2856 -88.8894 159° South 460 529 28,100 -2,016 Descending Chicago Center
Tue 07:46:43 PM 41.1661 -88.8297 159° South 464 534 26,000 -2,226 Descending Chicago Center
Tue 07:47:45 PM 41.0494 -88.7711 159° South 457 526 23,500 -2,419 Descending Chicago Center
Tue 07:48:47 PM 40.9381 -88.7158 159° South 437 503 21,000 -2,661 Descending Chicago Center
Tue 07:49:49 PM 40.8042 -88.6497 160° South 433 498 18,000 -2,565 Descending Chicago Center
Tue 07:50:51 PM 40.6986 -88.5967 159° South 414 476 15,700 -2,323 Descending Chicago Center
Tue 07:51:53 PM 40.5958 -88.5467 160° South 400 460 13,200 -2,226 Descending Chicago Center
Tue 07:52:55 PM 40.4989 -88.4986 159° South 380 437 11,100 -1,161 Descending Chicago Center
Tue 07:53:57 PM 40.4150 -88.4578 160° South 329 379 10,800 -1,452 Descending Chicago Center
Tue 07:54:59 PM 40.3197 -88.4258 166° South 301 346 8,100 -2,565 Descending Chicago Center
Tue 07:56:01 PM 40.2422 -88.4017 167° South 294 338 5,500 -2,400 Descending Chicago Center
Tue 07:57:04 PM 40.1725 -88.3761 164° South 268 308 3,100 -1,488 Descending Chicago Center
Tue 07:58:06 PM 40.1008 -88.3478 163° South 249 287 2,400 -677 Descending Chicago Center
Tue 08:00:00 PM 40.0388 -88.2778 153° Southeast  Level Estimated
Tue 08:07:00 PM 40.0388 -88.2778 153° Southeast  Level Estimated
Tue 08:08:00 PM 40.0388 -88.2778 153° Southeast  Level Estimated

Login

Don't have an account? Register now (free) for customized features, flight alerts, and more!